PWSweather.com
Personal Weather Stations
Station Observations
SUBOTICARS
SuboticaYU

SuboticaYU

Lat: 46.1296717, Lon: 19.641551

Elevation: 361

Station Type: Nexus

http://sumeteo.info

High Low Average
Temperature 43.0°F6.1°C 32.0°F0.0°C 36.4°F2.4°C
Dew Point 32.2°F0.1°C 22.3°F-5.4°C 26.6°F-3.0°C
Winds 23.0 mph 37.0 kmh Calm Calm 8.0 mph WNW12.9 kmh WNW
Wind Gusts 27.6 mph44.4 kmh 1.2 mph1.9 kmh 10.0 mph16.1 kmh
Humidity 86% 49% 68%
Pressure 29.71 in1006.1 mb 29.58 in1001.7 mb -
Precipitation 0.00 in0.0 mm - -
Hour Temp Dew Point Humidity Winds Wind Gusts Pressure Precip Precip Rate Daily Precip Total
12:00 AM 34.9°F1.6°C 30.2°F-1.0°C 83% 5.8 mph WSW9.3 kmh WSW 3.5 mph5.6 kmh 29.68 in1005.1 mb - 0.02 in0.5 mm 0.02 in0.5 mm
12:10 AM 34.9°F1.6°C 30.2°F-1.0°C 83% 4.6 mph WSW7.4 kmh WSW 4.6 mph7.4 kmh 29.68 in1005.1 mb - 0.02 in0.5 mm 0.04 in1.0 mm
12:15 AM 34.9°F1.6°C 30.2°F-1.0°C 83% 3.5 mph SW5.6 kmh SW 4.6 mph7.4 kmh 29.67 in1004.7 mb - 0.02 in0.5 mm 0.06 in1.5 mm
12:20 AM 34.7°F1.5°C 30.1°F-1.1°C 83% 4.6 mph SSW7.4 kmh SSW 6.9 mph11.1 kmh 29.66 in1004.4 mb - 0.00 in0.0 mm 0.06 in1.5 mm
12:25 AM 34.7°F1.5°C 30.4°F-0.9°C 84% 5.8 mph SW9.3 kmh SW 8.1 mph13.0 kmh 29.66 in1004.4 mb - 0.00 in0.0 mm 0.06 in1.5 mm
12:30 AM 34.7°F1.5°C 30.4°F-0.9°C 84% 4.6 mph SW7.4 kmh SW 5.8 mph9.3 kmh 29.66 in1004.4 mb - 0.00 in0.0 mm 0.06 in1.5 mm
12:35 AM 34.7°F1.5°C 30.4°F-0.9°C 84% 5.8 mph SW9.3 kmh SW 5.8 mph9.3 kmh 29.65 in1004.1 mb - 0.00 in0.0 mm 0.06 in1.5 mm
12:40 AM 34.5°F1.4°C 30.2°F-1.0°C 84% 4.6 mph SSW7.4 kmh SSW 4.6 mph7.4 kmh 29.65 in1004.1 mb - 0.00 in0.0 mm 0.06 in1.5 mm
12:45 AM 34.5°F1.4°C 30.2°F-1.0°C 84% 6.9 mph WSW11.1 kmh WSW 8.1 mph13.0 kmh 29.65 in1004.1 mb - 0.00 in0.0 mm 0.06 in1.5 mm
12:50 AM 34.5°F1.4°C 30.2°F-1.0°C 84% 5.8 mph SW9.3 kmh SW 8.1 mph13.0 kmh 29.65 in1004.1 mb - 0.00 in0.0 mm 0.06 in1.5 mm
12:55 AM 34.5°F1.4°C 30.2°F-1.0°C 84% 5.8 mph SW9.3 kmh SW 6.9 mph11.1 kmh 29.65 in1004.1 mb - 0.00 in0.0 mm 0.06 in1.5 mm
01:00 AM 34.5°F1.4°C 30.2°F-1.0°C 84% 4.6 mph SW7.4 kmh SW 5.8 mph9.3 kmh 29.65 in1004.1 mb - 0.00 in0.0 mm 0.06 in1.5 mm
01:10 AM 34.5°F1.4°C 30.2°F-1.0°C 84% 4.6 mph SW7.4 kmh SW 5.8 mph9.3 kmh 29.64 in1003.7 mb - 0.00 in0.0 mm 0.06 in1.5 mm
01:15 AM 34.3°F1.3°C 30.0°F-1.1°C 84% 5.8 mph SW9.3 kmh SW 5.8 mph9.3 kmh 29.64 in1003.7 mb - 0.00 in0.0 mm 0.06 in1.5 mm
01:20 AM 34.3°F1.3°C 30.0°F-1.1°C 84% 5.8 mph SW9.3 kmh SW 6.9 mph11.1 kmh 29.64 in1003.7 mb - 0.00 in0.0 mm 0.06 in1.5 mm
01:25 AM 34.2°F1.2°C 30.4°F-0.9°C 86% 4.6 mph SW7.4 kmh SW 4.6 mph7.4 kmh 29.64 in1003.7 mb - 0.00 in0.0 mm 0.06 in1.5 mm
01:30 AM 34.2°F1.2°C 30.4°F-0.9°C 86% 5.8 mph SSW9.3 kmh SSW 5.8 mph9.3 kmh 29.63 in1003.4 mb - 0.00 in0.0 mm 0.06 in1.5 mm
01:35 AM 34.0°F1.1°C 30.2°F-1.0°C 86% 4.6 mph SW7.4 kmh SW 4.6 mph7.4 kmh 29.63 in1003.4 mb - 0.00 in0.0 mm 0.06 in1.5 mm
01:40 AM 34.0°F1.1°C 30.2°F-1.0°C 86% 4.6 mph SW7.4 kmh SW 4.6 mph7.4 kmh 29.63 in1003.4 mb - 0.00 in0.0 mm 0.06 in1.5 mm
01:45 AM 34.0°F1.1°C 30.2°F-1.0°C 86% 4.6 mph WSW7.4 kmh WSW 5.8 mph9.3 kmh 29.63 in1003.4 mb - 0.00 in0.0 mm 0.06 in1.5 mm
01:50 AM 34.0°F1.1°C 30.2°F-1.0°C 86% 4.6 mph SW7.4 kmh SW 3.5 mph5.6 kmh 29.63 in1003.4 mb - 0.00 in0.0 mm 0.06 in1.5 mm
01:55 AM 34.0°F1.1°C 30.2°F-1.0°C 86% 4.6 mph SSW7.4 kmh SSW 5.8 mph9.3 kmh 29.63 in1003.4 mb - 0.00 in0.0 mm 0.06 in1.5 mm
02:00 AM 34.0°F1.1°C 30.2°F-1.0°C 86% 4.6 mph SW7.4 kmh SW 3.5 mph5.6 kmh 29.63 in1003.4 mb - 0.00 in0.0 mm 0.06 in1.5 mm
02:10 AM 34.0°F1.1°C 30.2°F-1.0°C 86% 4.6 mph SW7.4 kmh SW 4.6 mph7.4 kmh 29.63 in1003.4 mb - 0.00 in0.0 mm 0.06 in1.5 mm
02:15 AM 34.0°F1.1°C 30.2°F-1.0°C 86% 3.5 mph WSW5.6 kmh WSW 3.5 mph5.6 kmh 29.63 in1003.4 mb - 0.00 in0.0 mm 0.06 in1.5 mm
02:20 AM 34.0°F1.1°C 30.2°F-1.0°C 86% 5.8 mph WSW9.3 kmh WSW 6.9 mph11.1 kmh 29.62 in1003.0 mb - 0.00 in0.0 mm 0.06 in1.5 mm
02:25 AM 34.0°F1.1°C 30.2°F-1.0°C 86% 3.5 mph WNW5.6 kmh WNW 4.6 mph7.4 kmh 29.62 in1003.0 mb - 0.00 in0.0 mm 0.06 in1.5 mm
02:30 AM 34.2°F1.2°C 30.4°F-0.9°C 86% 6.9 mph SW11.1 kmh SW 5.8 mph9.3 kmh 29.62 in1003.0 mb - 0.00 in0.0 mm 0.06 in1.5 mm
02:35 AM 34.2°F1.2°C 29.8°F-1.2°C 84% 4.6 mph SW7.4 kmh SW 5.8 mph9.3 kmh 29.62 in1003.0 mb - 0.00 in0.0 mm 0.06 in1.5 mm
02:40 AM 34.0°F1.1°C 29.7°F-1.3°C 84% 2.3 mph SW3.7 kmh SW 3.5 mph5.6 kmh 29.62 in1003.0 mb - 0.00 in0.0 mm 0.06 in1.5 mm
02:45 AM 34.0°F1.1°C 29.7°F-1.3°C 84% 3.5 mph WSW5.6 kmh WSW 3.5 mph5.6 kmh 29.61 in1002.7 mb - 0.00 in0.0 mm 0.06 in1.5 mm
02:50 AM 34.0°F1.1°C 29.7°F-1.3°C 84% 2.3 mph WSW3.7 kmh WSW 2.3 mph3.7 kmh 29.61 in1002.7 mb - 0.00 in0.0 mm 0.06 in1.5 mm
02:55 AM 33.8°F1.0°C 29.5°F-1.4°C 84% 1.2 mph WSW1.9 kmh WSW 1.2 mph1.9 kmh 29.61 in1002.7 mb - 0.00 in0.0 mm 0.06 in1.5 mm
03:00 AM 34.0°F1.1°C 29.7°F-1.3°C 84% 3.5 mph NNW5.6 kmh NNW 3.5 mph5.6 kmh 29.61 in1002.7 mb - 0.00 in0.0 mm 0.06 in1.5 mm
03:10 AM 34.2°F1.2°C 29.8°F-1.2°C 84% 3.5 mph NNW5.6 kmh NNW 4.6 mph7.4 kmh 29.63 in1003.4 mb - 0.00 in0.0 mm 0.06 in1.5 mm
03:15 AM 34.2°F1.2°C 29.5°F-1.4°C 83% 3.5 mph WNW5.6 kmh WNW 3.5 mph5.6 kmh 29.63 in1003.4 mb - 0.00 in0.0 mm 0.06 in1.5 mm
03:20 AM 34.2°F1.2°C 29.5°F-1.4°C 83% 2.3 mph WNW3.7 kmh WNW 3.5 mph5.6 kmh 29.63 in1003.4 mb - 0.00 in0.0 mm 0.06 in1.5 mm
03:25 AM 34.2°F1.2°C 29.5°F-1.4°C 83% 2.3 mph WNW3.7 kmh WNW 2.3 mph3.7 kmh 29.63 in1003.4 mb - 0.00 in0.0 mm 0.06 in1.5 mm
03:30 AM 34.2°F1.2°C 29.5°F-1.4°C 83% 1.2 mph W1.9 kmh W 1.2 mph1.9 kmh 29.62 in1003.0 mb - 0.00 in0.0 mm 0.06 in1.5 mm
03:35 AM 34.1°F1.2°C 29.5°F-1.4°C 83% Calm Calm 1.2 mph1.9 kmh 29.61 in1002.7 mb - 0.00 in0.0 mm 0.06 in1.5 mm
03:40 AM 34.0°F1.1°C 29.4°F-1.4°C 83% 3.5 mph WNW5.6 kmh WNW 4.6 mph7.4 kmh 29.61 in1002.7 mb - 0.00 in0.0 mm 0.06 in1.5 mm
03:45 AM 34.0°F1.1°C 29.1°F-1.6°C 82% 3.5 mph WNW5.6 kmh WNW 3.5 mph5.6 kmh 29.61 in1002.7 mb - 0.00 in0.0 mm 0.06 in1.5 mm
03:50 AM 34.2°F1.2°C 29.2°F-1.6°C 82% 4.6 mph WNW7.4 kmh WNW 5.8 mph9.3 kmh 29.60 in1002.4 mb - 0.00 in0.0 mm 0.06 in1.5 mm
03:55 AM 34.3°F1.3°C 29.4°F-1.4°C 82% 4.6 mph WNW7.4 kmh WNW 6.9 mph11.1 kmh 29.60 in1002.4 mb - 0.00 in0.0 mm 0.06 in1.5 mm
04:00 AM 34.9°F1.6°C 29.6°F-1.3°C 81% 8.1 mph NNW13.0 kmh NNW 6.9 mph11.1 kmh 29.60 in1002.4 mb - 0.00 in0.0 mm 0.06 in1.5 mm
04:10 AM 36.0°F2.2°C 30.1°F-1.1°C 79% 6.9 mph W11.1 kmh W 8.1 mph13.0 kmh 29.60 in1002.4 mb - 0.00 in0.0 mm 0.06 in1.5 mm
04:15 AM 36.1°F2.3°C 29.9°F-1.2°C 78% 9.2 mph WNW14.8 kmh WNW 12.7 mph20.4 kmh 29.60 in1002.4 mb - 0.00 in0.0 mm 0.06 in1.5 mm
04:20 AM 36.0°F2.2°C 29.8°F-1.2°C 78% 5.8 mph WNW9.3 kmh WNW 9.2 mph14.8 kmh 29.60 in1002.4 mb - 0.00 in0.0 mm 0.06 in1.5 mm
04:25 AM 36.0°F2.2°C 30.1°F-1.1°C 79% 6.9 mph NW11.1 kmh NW 5.8 mph9.3 kmh 29.60 in1002.4 mb - 0.00 in0.0 mm 0.06 in1.5 mm
04:30 AM 35.8°F2.1°C 29.9°F-1.2°C 79% 8.1 mph W13.0 kmh W 9.2 mph14.8 kmh 29.61 in1002.7 mb - 0.00 in0.0 mm 0.06 in1.5 mm
04:35 AM 35.9°F2.2°C 30.4°F-0.9°C 80% 8.1 mph WNW13.0 kmh WNW 10.4 mph16.7 kmh 29.61 in1002.7 mb - 0.00 in0.0 mm 0.06 in1.5 mm
04:40 AM 36.1°F2.3°C 30.8°F-0.7°C 81% 8.1 mph NW13.0 kmh NW 10.4 mph16.7 kmh 29.61 in1002.7 mb - 0.00 in0.0 mm 0.06 in1.5 mm
04:45 AM 36.3°F2.4°C 31.4°F-0.3°C 82% 10.4 mph NW16.7 kmh NW 12.7 mph20.4 kmh 29.61 in1002.7 mb - 0.00 in0.0 mm 0.06 in1.5 mm
04:50 AM 36.3°F2.4°C 31.7°F-0.2°C 83% 6.9 mph WNW11.1 kmh WNW 9.2 mph14.8 kmh 29.60 in1002.4 mb - 0.00 in0.0 mm 0.06 in1.5 mm
04:55 AM 36.5°F2.5°C 31.8°F-0.1°C 83% 5.8 mph WNW9.3 kmh WNW 9.2 mph14.8 kmh 29.60 in1002.4 mb - 0.00 in0.0 mm 0.06 in1.5 mm
05:00 AM 36.5°F2.5°C 31.8°F-0.1°C 83% 9.2 mph W14.8 kmh W 10.4 mph16.7 kmh 29.60 in1002.4 mb - 0.00 in0.0 mm 0.06 in1.5 mm
05:10 AM 36.7°F2.6°C 32.0°F0.0°C 83% 8.1 mph WNW13.0 kmh WNW 13.8 mph22.2 kmh 29.59 in1002.0 mb - 0.00 in0.0 mm 0.06 in1.5 mm
05:15 AM 36.9°F2.7°C 32.2°F0.1°C 83% 5.8 mph NW9.3 kmh NW 8.1 mph13.0 kmh 29.59 in1002.0 mb - 0.00 in0.0 mm 0.06 in1.5 mm
05:20 AM 36.7°F2.6°C 32.0°F0.0°C 83% 6.9 mph NW11.1 kmh NW 6.9 mph11.1 kmh 29.60 in1002.4 mb - 0.00 in0.0 mm 0.06 in1.5 mm
05:25 AM 36.9°F2.7°C 32.2°F0.1°C 83% 6.9 mph NW11.1 kmh NW 6.9 mph11.1 kmh 29.60 in1002.4 mb - 0.00 in0.0 mm 0.06 in1.5 mm
05:30 AM 36.7°F2.6°C 31.7°F-0.2°C 82% 4.6 mph NNE7.4 kmh NNE 6.9 mph11.1 kmh 29.59 in1002.0 mb - 0.00 in0.0 mm 0.06 in1.5 mm
05:35 AM 36.7°F2.6°C 31.7°F-0.2°C 82% 5.8 mph W9.3 kmh W 8.1 mph13.0 kmh 29.59 in1002.0 mb - 0.00 in0.0 mm 0.06 in1.5 mm
05:40 AM 36.7°F2.6°C 31.7°F-0.2°C 82% 6.9 mph WNW11.1 kmh WNW 5.8 mph9.3 kmh 29.59 in1002.0 mb - 0.00 in0.0 mm 0.06 in1.5 mm
05:45 AM 36.7°F2.6°C 31.7°F-0.2°C 82% 6.9 mph WNW11.1 kmh WNW 10.4 mph16.7 kmh 29.59 in1002.0 mb - 0.00 in0.0 mm 0.06 in1.5 mm
05:50 AM 36.5°F2.5°C 31.5°F-0.3°C 82% 6.9 mph WNW11.1 kmh WNW 12.7 mph20.4 kmh 29.60 in1002.4 mb - 0.00 in0.0 mm 0.06 in1.5 mm
05:55 AM 36.5°F2.5°C 31.5°F-0.3°C 82% 8.1 mph WNW13.0 kmh WNW 15.0 mph24.1 kmh 29.60 in1002.4 mb - 0.00 in0.0 mm 0.06 in1.5 mm
06:00 AM 36.7°F2.6°C 31.1°F-0.5°C 80% 8.1 mph W13.0 kmh W 8.1 mph13.0 kmh 29.61 in1002.7 mb - 0.00 in0.0 mm 0.06 in1.5 mm
06:10 AM 36.6°F2.6°C 30.7°F-0.7°C 79% 6.9 mph WNW11.1 kmh WNW 6.9 mph11.1 kmh 29.61 in1002.7 mb - 0.00 in0.0 mm 0.06 in1.5 mm
06:15 AM 36.3°F2.4°C 30.4°F-0.9°C 79% 5.8 mph NW9.3 kmh NW 6.9 mph11.1 kmh 29.61 in1002.7 mb - 0.00 in0.0 mm 0.06 in1.5 mm
06:20 AM 36.1°F2.3°C 30.6°F-0.8°C 80% 5.8 mph NW9.3 kmh NW 8.1 mph13.0 kmh 29.62 in1003.0 mb - 0.00 in0.0 mm 0.06 in1.5 mm
06:25 AM 35.8°F2.1°C 30.2°F-1.0°C 80% 5.8 mph NW9.3 kmh NW 6.9 mph11.1 kmh 29.62 in1003.0 mb - 0.00 in0.0 mm 0.06 in1.5 mm
06:30 AM 35.6°F2.0°C 30.0°F-1.1°C 80% 4.6 mph W7.4 kmh W 5.8 mph9.3 kmh 29.61 in1002.7 mb - 0.00 in0.0 mm 0.06 in1.5 mm
06:35 AM 35.3°F1.8°C 30.0°F-1.1°C 81% 5.8 mph W9.3 kmh W 8.1 mph13.0 kmh 29.61 in1002.7 mb - 0.00 in0.0 mm 0.06 in1.5 mm
06:40 AM 35.2°F1.8°C 29.9°F-1.2°C 81% 4.6 mph WNW7.4 kmh WNW 5.8 mph9.3 kmh 29.61 in1002.7 mb - 0.00 in0.0 mm 0.06 in1.5 mm
06:45 AM 34.9°F1.6°C 29.6°F-1.3°C 81% 8.1 mph NW13.0 kmh NW 9.2 mph14.8 kmh 29.61 in1002.7 mb - 0.00 in0.0 mm 0.06 in1.5 mm
06:50 AM 34.7°F1.5°C 29.8°F-1.2°C 82% 5.8 mph W9.3 kmh W 4.6 mph7.4 kmh 29.60 in1002.4 mb - 0.00 in0.0 mm 0.06 in1.5 mm
06:55 AM 34.7°F1.5°C 29.8°F-1.2°C 82% 5.8 mph WNW9.3 kmh WNW 5.8 mph9.3 kmh 29.60 in1002.4 mb - 0.00 in0.0 mm 0.06 in1.5 mm
07:00 AM 34.5°F1.4°C 29.6°F-1.3°C 82% 5.8 mph WNW9.3 kmh WNW 8.1 mph13.0 kmh 29.60 in1002.4 mb - 0.00 in0.0 mm 0.06 in1.5 mm
07:10 AM 34.2°F1.2°C 29.2°F-1.6°C 82% 4.6 mph NW7.4 kmh NW 6.9 mph11.1 kmh 29.60 in1002.4 mb - 0.00 in0.0 mm 0.06 in1.5 mm
07:15 AM 34.1°F1.2°C 29.2°F-1.6°C 82% 4.6 mph W7.4 kmh W 6.9 mph11.1 kmh 29.60 in1002.4 mb - 0.00 in0.0 mm 0.06 in1.5 mm
07:20 AM 34.0°F1.1°C 29.1°F-1.6°C 82% 5.8 mph WNW9.3 kmh WNW 6.9 mph11.1 kmh 29.59 in1002.0 mb - 0.00 in0.0 mm 0.06 in1.5 mm
07:25 AM 34.0°F1.1°C 28.8°F-1.8°C 81% 4.6 mph WNW7.4 kmh WNW 4.6 mph7.4 kmh 29.59 in1002.0 mb - 0.00 in0.0 mm 0.06 in1.5 mm
07:30 AM 33.8°F1.0°C 28.3°F-2.1°C 80% 6.9 mph WNW11.1 kmh WNW 9.2 mph14.8 kmh 29.60 in1002.4 mb - 0.00 in0.0 mm 0.06 in1.5 mm
07:35 AM 33.8°F1.0°C 28.3°F-2.1°C 80% 5.8 mph W9.3 kmh W 6.9 mph11.1 kmh 29.61 in1002.7 mb - 0.00 in0.0 mm 0.06 in1.5 mm
07:40 AM 33.9°F1.1°C 28.1°F-2.2°C 79% 4.6 mph SW7.4 kmh SW 6.9 mph11.1 kmh 29.61 in1002.7 mb - 0.00 in0.0 mm 0.06 in1.5 mm
07:45 AM 33.8°F1.0°C 28.0°F-2.2°C 79% 6.9 mph W11.1 kmh W 6.9 mph11.1 kmh 29.61 in1002.7 mb - 0.00 in0.0 mm 0.06 in1.5 mm
07:50 AM 34.2°F1.2°C 28.0°F-2.2°C 78% 6.9 mph WNW11.1 kmh WNW 9.2 mph14.8 kmh 29.61 in1002.7 mb - 0.00 in0.0 mm 0.06 in1.5 mm
07:55 AM 34.3°F1.3°C 27.6°F-2.4°C 76% 6.9 mph WNW11.1 kmh WNW 10.4 mph16.7 kmh 29.61 in1002.7 mb - 0.00 in0.0 mm 0.06 in1.5 mm
08:00 AM 34.7°F1.5°C 26.9°F-2.8°C 73% 9.2 mph WNW14.8 kmh WNW 11.5 mph18.5 kmh 29.61 in1002.7 mb - 0.00 in0.0 mm 0.06 in1.5 mm
08:10 AM 35.4°F1.9°C 26.5°F-3.1°C 70% 10.4 mph NW16.7 kmh NW 12.7 mph20.4 kmh 29.61 in1002.7 mb - 0.00 in0.0 mm 0.06 in1.5 mm
08:15 AM 35.6°F2.0°C 26.1°F-3.3°C 68% 9.2 mph NW14.8 kmh NW 10.4 mph16.7 kmh 29.61 in1002.7 mb - 0.00 in0.0 mm 0.06 in1.5 mm
08:20 AM 35.8°F2.1°C 25.9°F-3.4°C 67% 8.1 mph NW13.0 kmh NW 12.7 mph20.4 kmh 29.60 in1002.4 mb - 0.00 in0.0 mm 0.06 in1.5 mm
08:25 AM 36.1°F2.3°C 25.9°F-3.4°C 66% 9.2 mph N14.8 kmh N 12.7 mph20.4 kmh 29.60 in1002.4 mb - 0.00 in0.0 mm 0.06 in1.5 mm
08:30 AM 36.1°F2.3°C 25.5°F-3.6°C 65% 6.9 mph WNW11.1 kmh WNW 9.2 mph14.8 kmh 29.60 in1002.4 mb - 0.00 in0.0 mm 0.06 in1.5 mm
08:35 AM 36.5°F2.5°C 25.5°F-3.6°C 64% 10.4 mph NW16.7 kmh NW 12.7 mph20.4 kmh 29.60 in1002.4 mb - 0.00 in0.0 mm 0.06 in1.5 mm
08:40 AM 37.1°F2.8°C 25.7°F-3.5°C 63% 11.5 mph NW18.5 kmh NW 12.7 mph20.4 kmh 29.60 in1002.4 mb - 0.00 in0.0 mm 0.06 in1.5 mm
08:45 AM 37.8°F3.2°C 25.9°F-3.4°C 62% 11.5 mph NNW18.5 kmh NNW 12.7 mph20.4 kmh 29.60 in1002.4 mb - 0.00 in0.0 mm 0.06 in1.5 mm
08:50 AM 38.3°F3.5°C 26.0°F-3.3°C 61% 11.5 mph WNW18.5 kmh WNW 16.1 mph25.9 kmh 29.60 in1002.4 mb - 0.00 in0.0 mm 0.06 in1.5 mm
08:55 AM 38.8°F3.8°C 26.5°F-3.1°C 61% 11.5 mph NW18.5 kmh NW 16.1 mph25.9 kmh 29.60 in1002.4 mb - 0.00 in0.0 mm 0.06 in1.5 mm
09:00 AM 39.0°F3.9°C 26.3°F-3.2°C 60% 13.8 mph WNW22.2 kmh WNW 16.1 mph25.9 kmh 29.60 in1002.4 mb - 0.00 in0.0 mm 0.06 in1.5 mm
09:10 AM 38.8°F3.8°C 26.1°F-3.3°C 60% 10.4 mph NNW16.7 kmh NNW 12.7 mph20.4 kmh 29.60 in1002.4 mb - 0.00 in0.0 mm 0.06 in1.5 mm
09:15 AM 39.0°F3.9°C 26.7°F-2.9°C 61% 10.4 mph NNW16.7 kmh NNW 12.7 mph20.4 kmh 29.60 in1002.4 mb - 0.00 in0.0 mm 0.06 in1.5 mm
09:20 AM 39.2°F4.0°C 26.9°F-2.8°C 61% 9.2 mph WNW14.8 kmh WNW 10.4 mph16.7 kmh 29.60 in1002.4 mb - 0.00 in0.0 mm 0.06 in1.5 mm
09:25 AM 39.4°F4.1°C 27.4°F-2.6°C 62% 8.1 mph NW13.0 kmh NW 8.1 mph13.0 kmh 29.60 in1002.4 mb - 0.00 in0.0 mm 0.06 in1.5 mm
09:30 AM 39.3°F4.1°C 26.6°F-3.0°C 60% 11.5 mph WNW18.5 kmh WNW 12.7 mph20.4 kmh 29.60 in1002.4 mb - 0.00 in0.0 mm 0.06 in1.5 mm
09:35 AM 39.5°F4.2°C 26.7°F-2.9°C 60% 9.2 mph NW14.8 kmh NW 6.9 mph11.1 kmh 29.60 in1002.4 mb - 0.00 in0.0 mm 0.06 in1.5 mm
09:40 AM 39.7°F4.3°C 27.0°F-2.8°C 60% 10.4 mph NW16.7 kmh NW 9.2 mph14.8 kmh 29.60 in1002.4 mb - 0.00 in0.0 mm 0.06 in1.5 mm
09:45 AM 39.7°F4.3°C 27.0°F-2.8°C 60% 10.4 mph WNW16.7 kmh WNW 13.8 mph22.2 kmh 29.60 in1002.4 mb - 0.00 in0.0 mm 0.06 in1.5 mm
09:50 AM 39.7°F4.3°C 26.6°F-3.0°C 59% 11.5 mph NW18.5 kmh NW 12.7 mph20.4 kmh 29.61 in1002.7 mb - 0.00 in0.0 mm 0.06 in1.5 mm
09:55 AM 39.9°F4.4°C 26.7°F-2.9°C 59% 10.4 mph NNW16.7 kmh NNW 11.5 mph18.5 kmh 29.61 in1002.7 mb - 0.00 in0.0 mm 0.06 in1.5 mm
10:00 AM 39.5°F4.2°C 25.9°F-3.4°C 58% 13.8 mph NNW22.2 kmh NNW 13.8 mph22.2 kmh 29.61 in1002.7 mb - 0.00 in0.0 mm 0.06 in1.5 mm
10:10 AM 39.6°F4.2°C 26.4°F-3.1°C 59% 23.0 mph NNW37.0 kmh NNW 26.5 mph42.6 kmh 29.61 in1002.7 mb - 0.00 in0.0 mm 0.06 in1.5 mm
10:15 AM 39.6°F4.2°C 26.4°F-3.1°C 59% 13.8 mph N22.2 kmh N 23.0 mph37.0 kmh 29.61 in1002.7 mb - 0.00 in0.0 mm 0.06 in1.5 mm
10:20 AM 39.7°F4.3°C 26.6°F-3.0°C 59% 13.8 mph WNW22.2 kmh WNW 17.3 mph27.8 kmh 29.60 in1002.4 mb - 0.00 in0.0 mm 0.06 in1.5 mm
10:25 AM 39.7°F4.3°C 26.6°F-3.0°C 59% 13.8 mph NW22.2 kmh NW 16.1 mph25.9 kmh 29.60 in1002.4 mb - 0.00 in0.0 mm 0.06 in1.5 mm
10:30 AM 39.9°F4.4°C 26.7°F-2.9°C 59% 18.4 mph NNW29.6 kmh NNW 23.0 mph37.0 kmh 29.60 in1002.4 mb - 0.00 in0.0 mm 0.06 in1.5 mm
10:35 AM 40.1°F4.5°C 26.9°F-2.8°C 59% 23.0 mph NNW37.0 kmh NNW 27.6 mph44.4 kmh 29.60 in1002.4 mb - 0.00 in0.0 mm 0.06 in1.5 mm
10:40 AM 40.3°F4.6°C 26.7°F-2.9°C 58% 15.0 mph NNW24.1 kmh NNW 17.3 mph27.8 kmh 29.60 in1002.4 mb - 0.00 in0.0 mm 0.06 in1.5 mm
10:45 AM 40.5°F4.7°C 26.8°F-2.9°C 58% 10.4 mph NW16.7 kmh NW 10.4 mph16.7 kmh 29.60 in1002.4 mb - 0.00 in0.0 mm 0.06 in1.5 mm
10:50 AM 40.6°F4.8°C 27.0°F-2.8°C 58% 12.7 mph WNW20.4 kmh WNW 16.1 mph25.9 kmh 29.60 in1002.4 mb - 0.00 in0.0 mm 0.06 in1.5 mm
10:55 AM 40.8°F4.9°C 27.2°F-2.7°C 58% 16.1 mph N25.9 kmh N 17.3 mph27.8 kmh 29.60 in1002.4 mb - 0.00 in0.0 mm 0.06 in1.5 mm
11:00 AM 41.0°F5.0°C 26.9°F-2.8°C 57% 13.8 mph NNW22.2 kmh NNW 20.7 mph33.3 kmh 29.60 in1002.4 mb - 0.00 in0.0 mm 0.06 in1.5 mm
11:10 AM 41.0°F5.0°C 26.9°F-2.8°C 57% 12.7 mph NNW20.4 kmh NNW 13.8 mph22.2 kmh 29.60 in1002.4 mb - 0.00 in0.0 mm 0.06 in1.5 mm
11:15 AM 41.0°F5.0°C 26.5°F-3.1°C 56% 17.3 mph NNW27.8 kmh NNW 20.7 mph33.3 kmh 29.60 in1002.4 mb - 0.00 in0.0 mm 0.06 in1.5 mm
11:20 AM 41.0°F5.0°C 26.5°F-3.1°C 56% 12.7 mph NNW20.4 kmh NNW 20.7 mph33.3 kmh 29.60 in1002.4 mb - 0.00 in0.0 mm 0.06 in1.5 mm
11:25 AM 40.8°F4.9°C 26.7°F-2.9°C 57% 17.3 mph NW27.8 kmh NW 17.3 mph27.8 kmh 29.60 in1002.4 mb - 0.00 in0.0 mm 0.06 in1.5 mm
11:30 AM 41.2°F5.1°C 26.7°F-2.9°C 56% 11.5 mph NNW18.5 kmh NNW 19.6 mph31.5 kmh 29.60 in1002.4 mb - 0.00 in0.0 mm 0.06 in1.5 mm
11:35 AM 41.2°F5.1°C 27.2°F-2.7°C 57% 13.8 mph NNW22.2 kmh NNW 8.1 mph13.0 kmh 29.60 in1002.4 mb - 0.00 in0.0 mm 0.06 in1.5 mm
11:40 AM 41.5°F5.3°C 27.0°F-2.8°C 56% 15.0 mph NNW24.1 kmh NNW 18.4 mph29.6 kmh 29.60 in1002.4 mb - 0.00 in0.0 mm 0.06 in1.5 mm
11:45 AM 41.0°F5.0°C 26.5°F-3.1°C 56% 16.1 mph WNW25.9 kmh WNW 20.7 mph33.3 kmh 29.59 in1002.0 mb - 0.00 in0.0 mm 0.06 in1.5 mm
11:50 AM 41.4°F5.2°C 26.8°F-2.9°C 56% 16.1 mph NNW25.9 kmh NNW 18.4 mph29.6 kmh 29.58 in1001.7 mb - 0.00 in0.0 mm 0.06 in1.5 mm
11:55 AM 41.5°F5.3°C 27.0°F-2.8°C 56% 13.8 mph NW22.2 kmh NW 16.1 mph25.9 kmh 29.58 in1001.7 mb - 0.00 in0.0 mm 0.06 in1.5 mm
12:00 PM 41.8°F5.4°C 27.2°F-2.7°C 56% 12.7 mph NNW20.4 kmh NNW 17.3 mph27.8 kmh 29.58 in1001.7 mb - 0.00 in0.0 mm 0.06 in1.5 mm
12:10 PM 42.1°F5.6°C 27.1°F-2.7°C 55% 16.1 mph NNW25.9 kmh NNW 20.7 mph33.3 kmh 29.58 in1001.7 mb - 0.00 in0.0 mm 0.06 in1.5 mm
12:15 PM 42.3°F5.7°C 26.8°F-2.9°C 54% 18.4 mph NNW29.6 kmh NNW 13.8 mph22.2 kmh 29.58 in1001.7 mb - 0.00 in0.0 mm 0.06 in1.5 mm
12:20 PM 42.1°F5.6°C 26.6°F-3.0°C 54% 19.6 mph NW31.5 kmh NW 19.6 mph31.5 kmh 29.59 in1002.0 mb - 0.00 in0.0 mm 0.06 in1.5 mm
12:25 PM 42.1°F5.6°C 26.6°F-3.0°C 54% 17.3 mph NW27.8 kmh NW 19.6 mph31.5 kmh 29.59 in1002.0 mb - 0.00 in0.0 mm 0.06 in1.5 mm
12:30 PM 42.1°F5.6°C 26.6°F-3.0°C 54% 15.0 mph NNW24.1 kmh NNW 18.4 mph29.6 kmh 29.58 in1001.7 mb - 0.00 in0.0 mm 0.06 in1.5 mm
12:35 PM 42.3°F5.7°C 26.3°F-3.2°C 53% 17.3 mph NNW27.8 kmh NNW 20.7 mph33.3 kmh 29.58 in1001.7 mb - 0.00 in0.0 mm 0.06 in1.5 mm
12:40 PM 42.4°F5.8°C 26.5°F-3.1°C 53% 13.8 mph NNW22.2 kmh NNW 20.7 mph33.3 kmh 29.58 in1001.7 mb - 0.00 in0.0 mm 0.06 in1.5 mm
12:45 PM 42.4°F5.8°C 26.5°F-3.1°C 53% 17.3 mph NNW27.8 kmh NNW 17.3 mph27.8 kmh 29.58 in1001.7 mb - 0.00 in0.0 mm 0.06 in1.5 mm
12:50 PM 42.6°F5.9°C 25.7°F-3.5°C 51% 12.7 mph NNW20.4 kmh NNW 12.7 mph20.4 kmh 29.58 in1001.7 mb - 0.00 in0.0 mm 0.06 in1.5 mm
12:55 PM 42.1°F5.6°C 25.2°F-3.8°C 51% 11.5 mph NNW18.5 kmh NNW 11.5 mph18.5 kmh 29.58 in1001.7 mb - 0.00 in0.0 mm 0.06 in1.5 mm
01:00 PM 42.3°F5.7°C 25.4°F-3.7°C 51% 12.7 mph NW20.4 kmh NW 18.4 mph29.6 kmh 29.58 in1001.7 mb - 0.00 in0.0 mm 0.06 in1.5 mm
01:10 PM 43.0°F6.1°C 26.1°F-3.3°C 51% 11.5 mph NNW18.5 kmh NNW 16.1 mph25.9 kmh 29.58 in1001.7 mb - 0.00 in0.0 mm 0.06 in1.5 mm
01:15 PM 42.8°F6.0°C 25.4°F-3.7°C 50% 13.8 mph NNW22.2 kmh NNW 16.1 mph25.9 kmh 29.58 in1001.7 mb - 0.00 in0.0 mm 0.06 in1.5 mm
01:20 PM 43.0°F6.1°C 25.6°F-3.6°C 50% 11.5 mph NNW18.5 kmh NNW 18.4 mph29.6 kmh 29.58 in1001.7 mb - 0.00 in0.0 mm 0.06 in1.5 mm
01:25 PM 42.3°F5.7°C 25.4°F-3.7°C 51% 17.3 mph NNW27.8 kmh NNW 20.7 mph33.3 kmh 29.58 in1001.7 mb - 0.00 in0.0 mm 0.06 in1.5 mm
01:30 PM 42.0°F5.6°C 25.1°F-3.8°C 51% 9.2 mph NW14.8 kmh NW 13.8 mph22.2 kmh 29.58 in1001.7 mb - 0.00 in0.0 mm 0.06 in1.5 mm
01:35 PM 41.6°F5.3°C 24.8°F-4.0°C 51% 12.7 mph N20.4 kmh N 15.0 mph24.1 kmh 29.58 in1001.7 mb - 0.00 in0.0 mm 0.06 in1.5 mm
01:40 PM 42.1°F5.6°C 25.2°F-3.8°C 51% 10.4 mph N16.7 kmh N 12.7 mph20.4 kmh 29.58 in1001.7 mb - 0.00 in0.0 mm 0.06 in1.5 mm
01:45 PM 42.3°F5.7°C 25.4°F-3.7°C 51% 11.5 mph NW18.5 kmh NW 12.7 mph20.4 kmh 29.59 in1002.0 mb - 0.00 in0.0 mm 0.06 in1.5 mm
01:50 PM 42.4°F5.8°C 25.6°F-3.6°C 51% 15.0 mph NW24.1 kmh NW 18.4 mph29.6 kmh 29.59 in1002.0 mb - 0.00 in0.0 mm 0.06 in1.5 mm
01:55 PM 42.4°F5.8°C 25.1°F-3.8°C 50% 11.5 mph NW18.5 kmh NW 11.5 mph18.5 kmh 29.59 in1002.0 mb - 0.00 in0.0 mm 0.06 in1.5 mm
02:00 PM 42.5°F5.8°C 25.2°F-3.8°C 50% 11.5 mph NW18.5 kmh NW 12.7 mph20.4 kmh 29.59 in1002.0 mb - 0.00 in0.0 mm 0.06 in1.5 mm
02:10 PM 42.6°F5.9°C 25.3°F-3.7°C 50% 12.7 mph NW20.4 kmh NW 13.8 mph22.2 kmh 29.59 in1002.0 mb - 0.00 in0.0 mm 0.06 in1.5 mm
02:15 PM 42.4°F5.8°C 25.1°F-3.8°C 50% 15.0 mph NW24.1 kmh NW 19.6 mph31.5 kmh 29.60 in1002.4 mb - 0.00 in0.0 mm 0.06 in1.5 mm
02:20 PM 42.1°F5.6°C 25.2°F-3.8°C 51% 12.7 mph N20.4 kmh N 12.7 mph20.4 kmh 29.60 in1002.4 mb - 0.00 in0.0 mm 0.06 in1.5 mm
02:25 PM 41.6°F5.3°C 24.8°F-4.0°C 51% 11.5 mph NW18.5 kmh NW 15.0 mph24.1 kmh 29.60 in1002.4 mb - 0.00 in0.0 mm 0.06 in1.5 mm
02:30 PM 41.6°F5.3°C 24.8°F-4.0°C 51% 16.1 mph NW25.9 kmh NW 21.9 mph35.2 kmh 29.60 in1002.4 mb - 0.00 in0.0 mm 0.06 in1.5 mm
02:35 PM 41.3°F5.2°C 23.6°F-4.7°C 49% 15.0 mph N24.1 kmh N 15.0 mph24.1 kmh 29.60 in1002.4 mb - 0.00 in0.0 mm 0.06 in1.5 mm
02:40 PM 40.8°F4.9°C 23.1°F-4.9°C 49% 10.4 mph NW16.7 kmh NW 10.4 mph16.7 kmh 29.60 in1002.4 mb - 0.00 in0.0 mm 0.06 in1.5 mm
02:45 PM 41.0°F5.0°C 23.3°F-4.8°C 49% 10.4 mph NW16.7 kmh NW 13.8 mph22.2 kmh 29.61 in1002.7 mb - 0.00 in0.0 mm 0.06 in1.5 mm
02:50 PM 41.0°F5.0°C 23.8°F-4.6°C 50% 9.2 mph WNW14.8 kmh WNW 8.1 mph13.0 kmh 29.61 in1002.7 mb - 0.00 in0.0 mm 0.06 in1.5 mm
02:55 PM 40.7°F4.8°C 23.9°F-4.5°C 51% 10.4 mph NNW16.7 kmh NNW 11.5 mph18.5 kmh 29.61 in1002.7 mb - 0.00 in0.0 mm 0.06 in1.5 mm
03:00 PM 40.6°F4.8°C 23.9°F-4.5°C 51% 10.4 mph NNW16.7 kmh NNW 12.7 mph20.4 kmh 29.61 in1002.7 mb - 0.00 in0.0 mm 0.06 in1.5 mm
03:10 PM 40.3°F4.6°C 23.6°F-4.7°C 51% 12.7 mph NNW20.4 kmh NNW 16.1 mph25.9 kmh 29.60 in1002.4 mb - 0.00 in0.0 mm 0.06 in1.5 mm
03:15 PM 40.3°F4.6°C 23.1°F-4.9°C 50% 15.0 mph NNW24.1 kmh NNW 17.3 mph27.8 kmh 29.60 in1002.4 mb - 0.00 in0.0 mm 0.06 in1.5 mm
03:20 PM 39.9°F4.4°C 23.2°F-4.9°C 51% 6.9 mph NNW11.1 kmh NNW 9.2 mph14.8 kmh 29.60 in1002.4 mb - 0.00 in0.0 mm 0.06 in1.5 mm
03:25 PM 39.8°F4.3°C 23.1°F-4.9°C 51% 8.1 mph NNW13.0 kmh NNW 6.9 mph11.1 kmh 29.60 in1002.4 mb - 0.00 in0.0 mm 0.06 in1.5 mm
03:30 PM 39.6°F4.2°C 22.9°F-5.1°C 51% 11.5 mph NNW18.5 kmh NNW 16.1 mph25.9 kmh 29.61 in1002.7 mb - 0.00 in0.0 mm 0.06 in1.5 mm
03:35 PM 39.2°F4.0°C 23.0°F-5.0°C 52% 10.4 mph NNW16.7 kmh NNW 10.4 mph16.7 kmh 29.61 in1002.7 mb - 0.00 in0.0 mm 0.06 in1.5 mm
03:40 PM 39.0°F3.9°C 22.9°F-5.1°C 52% 11.5 mph NW18.5 kmh NW 10.4 mph16.7 kmh 29.61 in1002.7 mb - 0.00 in0.0 mm 0.06 in1.5 mm
03:45 PM 38.8°F3.8°C 22.7°F-5.2°C 52% 8.1 mph NNW13.0 kmh NNW 10.4 mph16.7 kmh 29.61 in1002.7 mb - 0.00 in0.0 mm 0.06 in1.5 mm
03:50 PM 38.7°F3.7°C 22.5°F-5.3°C 52% 11.5 mph N18.5 kmh N 11.5 mph18.5 kmh 29.62 in1003.0 mb - 0.00 in0.0 mm 0.06 in1.5 mm
03:55 PM 38.4°F3.6°C 22.7°F-5.2°C 53% 9.2 mph NW14.8 kmh NW 12.7 mph20.4 kmh 29.62 in1003.0 mb - 0.00 in0.0 mm 0.06 in1.5 mm
04:00 PM 38.4°F3.6°C 22.8°F-5.1°C 53% 8.1 mph NNW13.0 kmh NNW 15.0 mph24.1 kmh 29.62 in1003.0 mb - 0.00 in0.0 mm 0.06 in1.5 mm
04:10 PM 38.1°F3.4°C 22.5°F-5.3°C 53% 8.1 mph NW13.0 kmh NW 9.2 mph14.8 kmh 29.62 in1003.0 mb - 0.00 in0.0 mm 0.06 in1.5 mm
04:15 PM 37.9°F3.3°C 22.3°F-5.4°C 53% 6.9 mph NNW11.1 kmh NNW 6.9 mph11.1 kmh 29.62 in1003.0 mb - 0.00 in0.0 mm 0.06 in1.5 mm
04:20 PM 37.4°F3.0°C 22.3°F-5.4°C 54% 5.8 mph WNW9.3 kmh WNW 5.8 mph9.3 kmh 29.62 in1003.0 mb - 0.00 in0.0 mm 0.06 in1.5 mm
04:25 PM 37.2°F2.9°C 22.5°F-5.3°C 55% 4.6 mph NW7.4 kmh NW 6.9 mph11.1 kmh 29.62 in1003.0 mb - 0.00 in0.0 mm 0.06 in1.5 mm
04:30 PM 37.2°F2.9°C 22.5°F-5.3°C 55% 6.9 mph N11.1 kmh N 13.8 mph22.2 kmh 29.62 in1003.0 mb - 0.00 in0.0 mm 0.06 in1.5 mm
04:35 PM 37.2°F2.9°C 22.5°F-5.3°C 55% 6.9 mph NW11.1 kmh NW 5.8 mph9.3 kmh 29.62 in1003.0 mb - 0.00 in0.0 mm 0.06 in1.5 mm
04:40 PM 36.9°F2.7°C 22.6°F-5.2°C 56% 6.9 mph N11.1 kmh N 8.1 mph13.0 kmh 29.62 in1003.0 mb - 0.00 in0.0 mm 0.06 in1.5 mm
04:45 PM 36.7°F2.6°C 22.4°F-5.3°C 56% 8.1 mph NNW13.0 kmh NNW 9.2 mph14.8 kmh 29.62 in1003.0 mb - 0.00 in0.0 mm 0.06 in1.5 mm
04:50 PM 36.3°F2.4°C 22.5°F-5.3°C 57% 4.6 mph WNW7.4 kmh WNW 5.8 mph9.3 kmh 29.62 in1003.0 mb - 0.00 in0.0 mm 0.06 in1.5 mm
04:55 PM 36.2°F2.3°C 22.8°F-5.1°C 58% 6.9 mph WNW11.1 kmh WNW 9.2 mph14.8 kmh 29.62 in1003.0 mb - 0.00 in0.0 mm 0.06 in1.5 mm
05:00 PM 36.1°F2.3°C 22.8°F-5.1°C 58% 6.9 mph NW11.1 kmh NW 6.9 mph11.1 kmh 29.62 in1003.0 mb - 0.00 in0.0 mm 0.06 in1.5 mm
05:10 PM 35.6°F2.0°C 23.1°F-4.9°C 60% 5.8 mph WNW9.3 kmh WNW 5.8 mph9.3 kmh 29.63 in1003.4 mb - 0.00 in0.0 mm 0.06 in1.5 mm
05:15 PM 35.6°F2.0°C 23.5°F-4.7°C 61% 6.9 mph NNW11.1 kmh NNW 11.5 mph18.5 kmh 29.63 in1003.4 mb - 0.00 in0.0 mm 0.06 in1.5 mm
05:20 PM 35.4°F1.9°C 23.7°F-4.6°C 62% 6.9 mph NW11.1 kmh NW 9.2 mph14.8 kmh 29.63 in1003.4 mb - 0.00 in0.0 mm 0.06 in1.5 mm
05:25 PM 35.2°F1.8°C 23.5°F-4.7°C 62% 5.8 mph WNW9.3 kmh WNW 6.9 mph11.1 kmh 29.63 in1003.4 mb - 0.00 in0.0 mm 0.06 in1.5 mm
05:30 PM 35.1°F1.7°C 23.7°F-4.6°C 63% 5.8 mph NW9.3 kmh NW 9.2 mph14.8 kmh 29.63 in1003.4 mb - 0.00 in0.0 mm 0.06 in1.5 mm
05:35 PM 35.2°F1.8°C 23.9°F-4.5°C 63% 6.9 mph NW11.1 kmh NW 6.9 mph11.1 kmh 29.63 in1003.4 mb - 0.00 in0.0 mm 0.06 in1.5 mm
05:40 PM 34.9°F1.6°C 23.6°F-4.7°C 63% 6.9 mph NW11.1 kmh NW 6.9 mph11.1 kmh 29.63 in1003.4 mb - 0.00 in0.0 mm 0.06 in1.5 mm
05:45 PM 34.7°F1.5°C 23.8°F-4.6°C 64% 8.1 mph W13.0 kmh W 6.9 mph11.1 kmh 29.63 in1003.4 mb - 0.00 in0.0 mm 0.06 in1.5 mm
05:50 PM 34.7°F1.5°C 23.7°F-4.6°C 64% 5.8 mph WNW9.3 kmh WNW 6.9 mph11.1 kmh 29.64 in1003.7 mb - 0.00 in0.0 mm 0.06 in1.5 mm
05:55 PM 34.5°F1.4°C 24.0°F-4.4°C 65% 6.9 mph WNW11.1 kmh WNW 8.1 mph13.0 kmh 29.64 in1003.7 mb - 0.00 in0.0 mm 0.06 in1.5 mm
06:00 PM 34.5°F1.4°C 23.9°F-4.5°C 65% 5.8 mph NNW9.3 kmh NNW 6.9 mph11.1 kmh 29.64 in1003.7 mb - 0.00 in0.0 mm 0.06 in1.5 mm
06:10 PM 34.2°F1.2°C 24.0°F-4.4°C 66% 6.9 mph NNW11.1 kmh NNW 12.7 mph20.4 kmh 29.64 in1003.7 mb - 0.00 in0.0 mm 0.06 in1.5 mm
06:15 PM 33.8°F1.0°C 23.6°F-4.7°C 66% 5.8 mph WNW9.3 kmh WNW 8.1 mph13.0 kmh 29.64 in1003.7 mb - 0.00 in0.0 mm 0.06 in1.5 mm
06:20 PM 33.8°F1.0°C 24.0°F-4.4°C 67% 5.8 mph NW9.3 kmh NW 6.9 mph11.1 kmh 29.64 in1003.7 mb - 0.00 in0.0 mm 0.06 in1.5 mm
06:25 PM 33.8°F1.0°C 24.0°F-4.4°C 67% 5.8 mph WNW9.3 kmh WNW 5.8 mph9.3 kmh 29.64 in1003.7 mb - 0.00 in0.0 mm 0.06 in1.5 mm
06:30 PM 33.4°F0.8°C 23.7°F-4.6°C 67% 4.6 mph WNW7.4 kmh WNW 6.9 mph11.1 kmh 29.64 in1003.7 mb - 0.00 in0.0 mm 0.06 in1.5 mm
06:35 PM 33.3°F0.7°C 23.8°F-4.6°C 68% 4.6 mph W7.4 kmh W 5.8 mph9.3 kmh 29.65 in1004.1 mb - 0.00 in0.0 mm 0.06 in1.5 mm
06:40 PM 33.3°F0.7°C 23.8°F-4.6°C 68% 5.8 mph NNW9.3 kmh NNW 4.6 mph7.4 kmh 29.65 in1004.1 mb - 0.00 in0.0 mm 0.06 in1.5 mm
06:45 PM 33.3°F0.7°C 24.2°F-4.3°C 69% 5.8 mph NW9.3 kmh NW 5.8 mph9.3 kmh 29.65 in1004.1 mb - 0.00 in0.0 mm 0.06 in1.5 mm
06:50 PM 33.3°F0.7°C 24.5°F-4.2°C 70% 5.8 mph WNW9.3 kmh WNW 8.1 mph13.0 kmh 29.64 in1003.7 mb - 0.00 in0.0 mm 0.06 in1.5 mm
06:55 PM 33.1°F0.6°C 24.4°F-4.2°C 70% 6.9 mph NW11.1 kmh NW 9.2 mph14.8 kmh 29.64 in1003.7 mb - 0.00 in0.0 mm 0.06 in1.5 mm
07:00 PM 33.6°F0.9°C 25.2°F-3.8°C 71% 5.8 mph NNW9.3 kmh NNW 5.8 mph9.3 kmh 29.64 in1003.7 mb - 0.00 in0.0 mm 0.06 in1.5 mm
07:10 PM 33.6°F0.9°C 25.2°F-3.8°C 71% 4.6 mph NW7.4 kmh NW 4.6 mph7.4 kmh 29.64 in1003.7 mb - 0.00 in0.0 mm 0.06 in1.5 mm
07:15 PM 33.4°F0.8°C 25.4°F-3.7°C 72% 5.8 mph NNW9.3 kmh NNW 6.9 mph11.1 kmh 29.65 in1004.1 mb - 0.00 in0.0 mm 0.06 in1.5 mm
07:20 PM 33.4°F0.8°C 25.4°F-3.7°C 72% 5.8 mph NW9.3 kmh NW 6.9 mph11.1 kmh 29.65 in1004.1 mb - 0.00 in0.0 mm 0.06 in1.5 mm
07:25 PM 33.4°F0.8°C 25.4°F-3.7°C 72% 6.9 mph NNW11.1 kmh NNW 6.9 mph11.1 kmh 29.65 in1004.1 mb - 0.00 in0.0 mm 0.06 in1.5 mm
07:30 PM 33.3°F0.7°C 25.2°F-3.8°C 72% 5.8 mph NNW9.3 kmh NNW 8.1 mph13.0 kmh 29.65 in1004.1 mb - 0.00 in0.0 mm 0.06 in1.5 mm
07:35 PM 33.1°F0.6°C 25.0°F-3.9°C 72% 4.6 mph NW7.4 kmh NW 5.8 mph9.3 kmh 29.65 in1004.1 mb - 0.00 in0.0 mm 0.06 in1.5 mm
07:40 PM 33.1°F0.6°C 25.0°F-3.9°C 72% 5.8 mph NW9.3 kmh NW 8.1 mph13.0 kmh 29.65 in1004.1 mb - 0.00 in0.0 mm 0.06 in1.5 mm
07:45 PM 32.9°F0.5°C 25.2°F-3.8°C 73% 5.8 mph WNW9.3 kmh WNW 6.9 mph11.1 kmh 29.65 in1004.1 mb - 0.00 in0.0 mm 0.06 in1.5 mm
07:50 PM 32.9°F0.5°C 25.2°F-3.8°C 73% 5.8 mph NW9.3 kmh NW 8.1 mph13.0 kmh 29.66 in1004.4 mb - 0.00 in0.0 mm 0.06 in1.5 mm
07:55 PM 32.9°F0.5°C 25.2°F-3.8°C 73% 4.6 mph W7.4 kmh W 3.5 mph5.6 kmh 29.66 in1004.4 mb - 0.00 in0.0 mm 0.06 in1.5 mm
08:00 PM 32.7°F0.4°C 25.0°F-3.9°C 73% 4.6 mph NNW7.4 kmh NNW 10.4 mph16.7 kmh 29.66 in1004.4 mb - 0.00 in0.0 mm 0.06 in1.5 mm
08:10 PM 32.5°F0.3°C 25.2°F-3.8°C 74% 5.8 mph NNW9.3 kmh NNW 5.8 mph9.3 kmh 29.66 in1004.4 mb - 0.00 in0.0 mm 0.06 in1.5 mm
08:15 PM 32.4°F0.2°C 25.3°F-3.7°C 75% 5.8 mph NW9.3 kmh NW 6.9 mph11.1 kmh 29.66 in1004.4 mb - 0.00 in0.0 mm 0.06 in1.5 mm
08:20 PM 32.4°F0.2°C 25.3°F-3.7°C 75% 5.8 mph NW9.3 kmh NW 8.1 mph13.0 kmh 29.66 in1004.4 mb - 0.00 in0.0 mm 0.06 in1.5 mm
08:25 PM 32.2°F0.1°C 25.1°F-3.8°C 75% 5.8 mph NNW9.3 kmh NNW 8.1 mph13.0 kmh 29.66 in1004.4 mb - 0.00 in0.0 mm 0.06 in1.5 mm
08:30 PM 32.3°F0.2°C 25.6°F-3.6°C 76% 5.8 mph NNW9.3 kmh NNW 4.6 mph7.4 kmh 29.66 in1004.4 mb - 0.00 in0.0 mm 0.06 in1.5 mm
08:35 PM 32.0°F0.0°C 25.3°F-3.7°C 76% 5.8 mph NW9.3 kmh NW 9.2 mph14.8 kmh 29.67 in1004.7 mb - 0.00 in0.0 mm 0.06 in1.5 mm
08:40 PM 32.2°F0.1°C 25.5°F-3.6°C 76% 4.6 mph NW7.4 kmh NW 8.1 mph13.0 kmh 29.67 in1004.7 mb - 0.00 in0.0 mm 0.06 in1.5 mm
08:45 PM 32.0°F0.0°C 25.3°F-3.7°C 76% 5.8 mph NW9.3 kmh NW 6.9 mph11.1 kmh 29.67 in1004.7 mb - 0.00 in0.0 mm 0.06 in1.5 mm
08:50 PM 32.2°F0.1°C 26.1°F-3.3°C 78% 5.8 mph NNW9.3 kmh NNW 6.9 mph11.1 kmh 29.67 in1004.7 mb - 0.00 in0.0 mm 0.06 in1.5 mm
08:55 PM 32.2°F0.1°C 26.1°F-3.3°C 78% 5.8 mph NNW9.3 kmh NNW 9.2 mph14.8 kmh 29.67 in1004.7 mb - 0.00 in0.0 mm 0.06 in1.5 mm
09:00 PM 32.0°F0.0°C 25.3°F-3.7°C 76% 5.8 mph NW9.3 kmh NW 8.1 mph13.0 kmh 29.67 in1004.7 mb - 0.00 in0.0 mm 0.06 in1.5 mm
09:10 PM 32.2°F0.1°C 26.1°F-3.3°C 78% 8.1 mph NNW13.0 kmh NNW 9.2 mph14.8 kmh 29.68 in1005.1 mb - 0.00 in0.0 mm 0.06 in1.5 mm
09:15 PM 32.0°F0.0°C 25.3°F-3.7°C 76% 8.1 mph NNW13.0 kmh NNW 6.9 mph11.1 kmh 29.67 in1004.7 mb - 0.00 in0.0 mm 0.06 in1.5 mm
09:20 PM 32.0°F0.0°C 25.3°F-3.7°C 76% 6.9 mph NW11.1 kmh NW 5.8 mph9.3 kmh 29.67 in1004.7 mb - 0.00 in0.0 mm 0.06 in1.5 mm
09:25 PM 32.0°F0.0°C 25.3°F-3.7°C 76% 8.1 mph NNW13.0 kmh NNW 10.4 mph16.7 kmh 29.67 in1004.7 mb - 0.00 in0.0 mm 0.06 in1.5 mm
09:30 PM 32.2°F0.1°C 25.5°F-3.6°C 76% 8.1 mph NW13.0 kmh NW 6.9 mph11.1 kmh 29.67 in1004.7 mb - 0.00 in0.0 mm 0.06 in1.5 mm
09:35 PM 32.4°F0.2°C 25.3°F-3.7°C 75% 8.1 mph NNW13.0 kmh NNW 10.4 mph16.7 kmh 29.67 in1004.7 mb - 0.00 in0.0 mm 0.06 in1.5 mm
09:40 PM 32.4°F0.2°C 25.0°F-3.9°C 74% 9.2 mph NW14.8 kmh NW 11.5 mph18.5 kmh 29.67 in1004.7 mb - 0.00 in0.0 mm 0.06 in1.5 mm
09:45 PM 32.4°F0.2°C 24.7°F-4.1°C 73% 9.2 mph NNW14.8 kmh NNW 10.4 mph16.7 kmh 29.67 in1004.7 mb - 0.00 in0.0 mm 0.06 in1.5 mm
09:50 PM 32.4°F0.2°C 24.3°F-4.3°C 72% 6.9 mph WNW11.1 kmh WNW 10.4 mph16.7 kmh 29.67 in1004.7 mb - 0.00 in0.0 mm 0.06 in1.5 mm
09:55 PM 32.5°F0.3°C 24.5°F-4.2°C 72% 8.1 mph NNW13.0 kmh NNW 10.4 mph16.7 kmh 29.67 in1004.7 mb - 0.00 in0.0 mm 0.06 in1.5 mm
10:00 PM 32.7°F0.4°C 24.3°F-4.3°C 71% 9.2 mph NNW14.8 kmh NNW 9.2 mph14.8 kmh 29.67 in1004.7 mb - 0.00 in0.0 mm 0.06 in1.5 mm
10:10 PM 32.7°F0.4°C 24.0°F-4.4°C 70% 9.2 mph NNW14.8 kmh NNW 10.4 mph16.7 kmh 29.68 in1005.1 mb - 0.00 in0.0 mm 0.06 in1.5 mm
10:15 PM 32.7°F0.4°C 23.7°F-4.6°C 69% 8.1 mph NNW13.0 kmh NNW 10.4 mph16.7 kmh 29.68 in1005.1 mb - 0.00 in0.0 mm 0.06 in1.5 mm
10:20 PM 32.7°F0.4°C 23.3°F-4.8°C 68% 6.9 mph NNW11.1 kmh NNW 8.1 mph13.0 kmh 29.68 in1005.1 mb - 0.00 in0.0 mm 0.06 in1.5 mm
10:25 PM 32.7°F0.4°C 23.3°F-4.8°C 68% 8.1 mph NW13.0 kmh NW 9.2 mph14.8 kmh 29.68 in1005.1 mb - 0.00 in0.0 mm 0.06 in1.5 mm
10:30 PM 32.9°F0.5°C 23.1°F-4.9°C 67% 4.6 mph NNW7.4 kmh NNW 6.9 mph11.1 kmh 29.68 in1005.1 mb - 0.00 in0.0 mm 0.06 in1.5 mm
10:35 PM 32.9°F0.5°C 22.8°F-5.1°C 66% 8.1 mph NNW13.0 kmh NNW 12.7 mph20.4 kmh 29.69 in1005.4 mb - 0.00 in0.0 mm 0.06 in1.5 mm
10:40 PM 32.9°F0.5°C 22.4°F-5.3°C 65% 6.9 mph N11.1 kmh N 8.1 mph13.0 kmh 29.69 in1005.4 mb - 0.00 in0.0 mm 0.06 in1.5 mm
10:45 PM 33.1°F0.6°C 22.3°F-5.4°C 64% 9.2 mph NNW14.8 kmh NNW 12.7 mph20.4 kmh 29.69 in1005.4 mb - 0.00 in0.0 mm 0.06 in1.5 mm
10:50 PM 33.2°F0.7°C 22.3°F-5.4°C 64% 9.2 mph NNW14.8 kmh NNW 13.8 mph22.2 kmh 29.69 in1005.4 mb - 0.00 in0.0 mm 0.06 in1.5 mm
10:55 PM 33.3°F0.7°C 22.4°F-5.3°C 64% 8.1 mph N13.0 kmh N 8.1 mph13.0 kmh 29.69 in1005.4 mb - 0.00 in0.0 mm 0.06 in1.5 mm
11:00 PM 33.3°F0.7°C 22.4°F-5.3°C 64% 5.8 mph NW9.3 kmh NW 5.8 mph9.3 kmh 29.69 in1005.4 mb - 0.00 in0.0 mm 0.06 in1.5 mm
11:10 PM 33.8°F1.0°C 22.5°F-5.3°C 63% 10.4 mph NW16.7 kmh NW 10.4 mph16.7 kmh 29.69 in1005.4 mb - 0.00 in0.0 mm 0.06 in1.5 mm
11:15 PM 34.0°F1.1°C 22.3°F-5.4°C 62% 8.1 mph NW13.0 kmh NW 8.1 mph13.0 kmh 29.70 in1005.8 mb - 0.00 in0.0 mm 0.06 in1.5 mm
11:20 PM 34.2°F1.2°C 22.5°F-5.3°C 62% 10.4 mph NNE16.7 kmh NNE 10.4 mph16.7 kmh 29.70 in1005.8 mb - 0.00 in0.0 mm 0.06 in1.5 mm
11:25 PM 34.3°F1.3°C 22.7°F-5.2°C 62% 11.5 mph NNW18.5 kmh NNW 12.7 mph20.4 kmh 29.70 in1005.8 mb - 0.00 in0.0 mm 0.06 in1.5 mm
11:30 PM 34.3°F1.3°C 22.3°F-5.4°C 61% 9.2 mph NNW14.8 kmh NNW 13.8 mph22.2 kmh 29.70 in1005.8 mb - 0.00 in0.0 mm 0.06 in1.5 mm
11:35 PM 34.5°F1.4°C 22.4°F-5.3°C 61% 11.5 mph NNW18.5 kmh NNW 12.7 mph20.4 kmh 29.70 in1005.8 mb - 0.00 in0.0 mm 0.06 in1.5 mm
11:40 PM 34.3°F1.3°C 22.3°F-5.4°C 61% 9.2 mph N14.8 kmh N 11.5 mph18.5 kmh 29.70 in1005.8 mb - 0.00 in0.0 mm 0.06 in1.5 mm
11:45 PM 34.5°F1.4°C 22.4°F-5.3°C 61% 11.5 mph NNW18.5 kmh NNW 11.5 mph18.5 kmh 29.71 in1006.1 mb - 0.00 in0.0 mm 0.06 in1.5 mm
11:50 PM 34.5°F1.4°C 22.4°F-5.3°C 61% 10.4 mph N16.7 kmh N 15.0 mph24.1 kmh 29.71 in1006.1 mb - 0.00 in0.0 mm 0.06 in1.5 mm
11:55 PM 34.5°F1.4°C 22.4°F-5.3°C 61% 8.1 mph NNW13.0 kmh NNW 9.2 mph14.8 kmh 29.71 in1006.1 mb - 0.00 in0.0 mm 0.06 in1.5 mm